createdAt,value
2023-01-18T00:01:41.437Z,98906.41
2023-01-18T00:04:08.292Z,98911.75
2023-01-18T00:06:35.231Z,98922.13
2023-01-18T00:09:05.895Z,98915.63
2023-01-18T00:11:33.422Z,98917.72
2023-01-18T00:14:02.906Z,98909.75
2023-01-18T00:16:30.793Z,98907.47
2023-01-18T00:18:58.476Z,98903.38
2023-01-18T00:21:26.782Z,98899.31
2023-01-18T00:23:54.687Z,98910.00
2023-01-18T00:26:22.700Z,98898.00
2023-01-18T00:28:49.792Z,98903.47
2023-01-18T00:31:18.264Z,98895.69
2023-01-18T00:33:47.183Z,98896.50
2023-01-18T00:36:15.499Z,98906.22
2023-01-18T00:38:42.431Z,98909.94
2023-01-18T00:41:09.226Z,98913.47
2023-01-18T00:43:39.326Z,98912.84
2023-01-18T00:46:11.959Z,98904.22
2023-01-18T00:48:46.807Z,98922.41
2023-01-18T00:51:17.063Z,98908.88
2023-01-18T00:53:50.290Z,98901.78
2023-01-18T00:56:21.286Z,98898.34
2023-01-18T00:58:51.972Z,98900.00
2023-01-18T01:01:19.967Z,98904.22
2023-01-18T01:03:56.837Z,98902.72
2023-01-18T01:06:36.974Z,98900.31
2023-01-18T01:09:05.445Z,98904.69
2023-01-18T01:11:33.487Z,98905.50
2023-01-18T01:14:11.567Z,98893.47
2023-01-18T01:16:48.531Z,98895.53
2023-01-18T01:19:25.686Z,98905.13
2023-01-18T01:22:02.792Z,98903.31
2023-01-18T01:24:39.422Z,98898.75
2023-01-18T01:27:08.863Z,98906.81
2023-01-18T01:29:36.617Z,98907.78
2023-01-18T01:32:04.037Z,98911.34
2023-01-18T01:34:32.145Z,98917.50
2023-01-18T01:36:58.921Z,98919.28
2023-01-18T01:39:27.955Z,98926.25
2023-01-18T01:41:57.076Z,98927.38
2023-01-18T01:44:26.053Z,98941.00
2023-01-18T01:46:54.296Z,98925.44
2023-01-18T01:49:21.306Z,98930.47
2023-01-18T01:51:51.459Z,98927.88
2023-01-18T01:54:21.281Z,98934.72
2023-01-18T01:56:49.946Z,98942.25
2023-01-18T01:59:17.537Z,98941.56
2023-01-18T02:01:44.822Z,98942.38
2023-01-18T02:04:12.442Z,98935.72
2023-01-18T02:06:40.001Z,98953.22
2023-01-18T02:09:10.329Z,98954.34
2023-01-18T02:11:37.580Z,98946.00
2023-01-18T02:14:05.866Z,98950.22
2023-01-18T02:16:43.231Z,98937.28
2023-01-18T02:19:19.652Z,98944.41
2023-01-18T02:21:50.766Z,98946.00
2023-01-18T02:24:29.310Z,98949.59
2023-01-18T02:27:05.915Z,98955.41
2023-01-18T02:29:43.337Z,98952.84
2023-01-18T02:32:10.421Z,98954.47
2023-01-18T02:34:41.138Z,98953.66
2023-01-18T02:37:17.160Z,98948.31
2023-01-18T02:39:52.602Z,98952.69
2023-01-18T02:42:32.370Z,98957.06
2023-01-18T02:45:09.736Z,98949.16
2023-01-18T02:47:37.432Z,98948.31
2023-01-18T02:50:04.428Z,98950.91
2023-01-18T02:52:38.867Z,98947.50
2023-01-18T02:55:06.806Z,98940.69
2023-01-18T02:57:34.257Z,98950.91
2023-01-18T03:00:03.057Z,98945.06
2023-01-18T03:02:29.827Z,98958.69
2023-01-18T03:04:56.781Z,98950.22
2023-01-18T03:07:33.437Z,98957.19
2023-01-18T03:10:02.139Z,98951.50
2023-01-18T03:12:46.319Z,98950.97
2023-01-18T03:15:22.861Z,98950.44
2023-01-18T03:17:52.244Z,98951.41
2023-01-18T03:20:25.893Z,98944.88
2023-01-18T03:23:02.436Z,98946.66
2023-01-18T03:25:31.584Z,98950.06
2023-01-18T03:28:09.586Z,98944.59
2023-01-18T03:30:46.926Z,98953.34
2023-01-18T03:33:23.494Z,98941.47
2023-01-18T03:35:51.721Z,98946.66
2023-01-18T03:38:19.326Z,98949.22
2023-01-18T03:40:46.700Z,98956.50
2023-01-18T03:43:17.599Z,98944.50
2023-01-18T03:45:45.952Z,98940.00
2023-01-18T03:48:13.116Z,98936.44
2023-01-18T03:50:40.121Z,98932.88
2023-01-18T03:53:12.457Z,98942.44
2023-01-18T03:55:49.121Z,98939.84
2023-01-18T03:58:18.948Z,98940.50
2023-01-18T04:00:45.918Z,98944.88
2023-01-18T04:03:12.946Z,98949.41
2023-01-18T04:05:39.890Z,98951.31
2023-01-18T04:08:06.904Z,98953.09
2023-01-18T04:10:33.630Z,98944.50
2023-01-18T04:13:00.834Z,98946.00
2023-01-18T04:15:27.936Z,98952.00
2023-01-18T04:17:56.089Z,98951.03
2023-01-18T04:20:23.255Z,98949.41
2023-01-18T04:22:53.507Z,98950.06
2023-01-18T04:25:20.337Z,98956.06
2023-01-18T04:27:47.091Z,98957.56
2023-01-18T04:30:13.878Z,98950.59
2023-01-18T04:32:42.941Z,98950.75
2023-01-18T04:35:10.215Z,98937.91
2023-01-18T04:37:38.615Z,98948.28
2023-01-18T04:40:06.056Z,98951.56
2023-01-18T04:42:33.088Z,98945.56
2023-01-18T04:45:00.364Z,98953.84
2023-01-18T04:47:29.238Z,98946.88
2023-01-18T04:49:57.761Z,98956.00
2023-01-18T04:52:25.470Z,98960.53
2023-01-18T04:54:52.538Z,98967.19
2023-01-18T04:57:19.329Z,98965.28
2023-01-18T04:59:46.263Z,98962.16
2023-01-18T05:02:13.435Z,98967.34
2023-01-18T05:04:40.411Z,98975.28
2023-01-18T05:07:07.428Z,98969.66
2023-01-18T05:09:34.477Z,98976.91
2023-01-18T05:12:01.306Z,98982.09
2023-01-18T05:14:28.001Z,98979.94
2023-01-18T05:16:54.767Z,98967.38
2023-01-18T05:19:21.487Z,98975.59
2023-01-18T05:21:48.247Z,98977.00
2023-01-18T05:24:15.111Z,98970.47
2023-01-18T05:26:41.892Z,98978.25
2023-01-18T05:29:08.681Z,98983.59
2023-01-18T05:31:35.505Z,98979.34
2023-01-18T05:34:02.444Z,98976.59
2023-01-18T05:36:29.232Z,98978.94
2023-01-18T05:38:56.265Z,98976.03
2023-01-18T05:41:23.018Z,98970.41
2023-01-18T05:43:49.738Z,98970.78
2023-01-18T05:46:16.474Z,98985.13
2023-01-18T05:48:43.350Z,98980.72
2023-01-18T05:51:11.311Z,98982.53
2023-01-18T05:53:38.331Z,98987.56
2023-01-18T05:56:06.321Z,98985.78
2023-01-18T05:58:33.151Z,98991.78
2023-01-18T06:00:59.992Z,98992.31
2023-01-18T06:03:26.754Z,98997.34
2023-01-18T06:05:53.672Z,98993.81
2023-01-18T06:08:21.076Z,99002.53
2023-01-18T06:11:01.197Z,98999.44
2023-01-18T06:13:29.457Z,98995.34
2023-01-18T06:15:57.235Z,99000.53
2023-01-18T06:18:24.995Z,99000.53
2023-01-18T06:21:01.411Z,99000.25
2023-01-18T06:23:29.263Z,99000.25
2023-01-18T06:25:56.080Z,99000.09
2023-01-18T06:28:24.051Z,99008.84
2023-01-18T06:30:55.550Z,99010.63
2023-01-18T06:33:23.286Z,99007.03
2023-01-18T06:35:50.239Z,99000.09
2023-01-18T06:38:17.289Z,99008.94
2023-01-18T06:40:44.236Z,99009.63
2023-01-18T06:43:14.529Z,99012.88
2023-01-18T06:45:41.646Z,99018.06
2023-01-18T06:48:08.943Z,99024.88
2023-01-18T06:50:35.754Z,99023.75
2023-01-18T06:53:02.540Z,99040.13
2023-01-18T06:55:29.317Z,99033.19
2023-01-18T06:57:57.304Z,99041.66
2023-01-18T07:00:24.405Z,99040.53
2023-01-18T07:02:51.783Z,99052.66
2023-01-18T07:05:18.970Z,99049.13
2023-01-18T07:07:46.598Z,99053.34
2023-01-18T07:10:16.163Z,99044.91
2023-01-18T07:12:43.563Z,99065.66
2023-01-18T07:15:21.098Z,99063.75
2023-01-18T07:17:50.693Z,99068.09
2023-01-18T07:20:17.892Z,99075.06
2023-01-18T07:22:44.691Z,99081.75
2023-01-18T07:25:13.768Z,99083.25
2023-01-18T07:27:43.484Z,99089.09
2023-01-18T07:30:12.660Z,99085.00
2023-01-18T07:32:39.605Z,99085.81
2023-01-18T07:35:06.523Z,99085.81
2023-01-18T07:37:34.417Z,99084.19
2023-01-18T07:40:05.507Z,99091.19
2023-01-18T07:42:32.312Z,99091.31
2023-01-18T07:44:59.140Z,99094.03
2023-01-18T07:47:26.027Z,99091.75
2023-01-18T07:49:52.896Z,99095.00
2023-01-18T07:52:19.691Z,99098.59
2023-01-18T07:54:46.450Z,99096.13
2023-01-18T07:57:13.562Z,99097.75
2023-01-18T07:59:40.637Z,99103.78
2023-01-18T08:02:09.029Z,99106.75
2023-01-18T08:04:36.003Z,99114.19
2023-01-18T08:07:02.791Z,99119.22
2023-01-18T08:09:29.640Z,99121.44
2023-01-18T08:11:56.580Z,99128.03
2023-01-18T08:14:23.481Z,99118.88
2023-01-18T08:16:50.291Z,99119.88
2023-01-18T08:19:17.643Z,99124.38
2023-01-18T08:21:45.110Z,99124.38
2023-01-18T08:24:13.244Z,99120.00
2023-01-18T08:26:40.147Z,99127.66
2023-01-18T08:29:07.017Z,99131.34
2023-01-18T08:31:34.148Z,99141.59
2023-01-18T08:34:02.305Z,99147.75
2023-01-18T08:36:29.304Z,99156.34
2023-01-18T08:38:57.938Z,99162.34
2023-01-18T08:41:28.815Z,99155.22
2023-01-18T08:43:56.369Z,99174.22
2023-01-18T08:46:23.864Z,99176.97
2023-01-18T08:48:51.563Z,99183.78
2023-01-18T08:51:18.984Z,99184.59
2023-01-18T08:53:46.823Z,99193.22
2023-01-18T08:56:13.980Z,99192.25
2023-01-18T08:58:41.173Z,99191.31
2023-01-18T09:01:09.117Z,99195.81
2023-01-18T09:03:36.787Z,99196.63
2023-01-18T09:06:04.861Z,99196.31
2023-01-18T09:08:32.360Z,99197.69
2023-01-18T09:11:08.492Z,99193.16
2023-01-18T09:13:35.428Z,99188.34
2023-01-18T09:16:03.386Z,99195.19
2023-01-18T09:18:30.824Z,99192.03
2023-01-18T09:20:58.316Z,99192.69
2023-01-18T09:23:25.853Z,99194.88
2023-01-18T09:26:03.409Z,99191.28
2023-01-18T09:28:30.320Z,99198.13
2023-01-18T09:31:01.374Z,99188.25
2023-01-18T09:33:36.884Z,99192.22
2023-01-18T09:36:05.697Z,99196.97
2023-01-18T09:38:32.681Z,99200.78
2023-01-18T09:40:59.604Z,99201.28
2023-01-18T09:43:28.987Z,99205.34
2023-01-18T09:45:56.880Z,99211.38
2023-01-18T09:48:28.738Z,99205.75
2023-01-18T09:50:58.687Z,99209.84
2023-01-18T09:53:34.649Z,99212.13
2023-01-18T09:56:17.118Z,99219.94
2023-01-18T09:58:47.285Z,99229.88
2023-01-18T10:01:17.617Z,99237.41
2023-01-18T10:03:48.296Z,99233.69
2023-01-18T10:06:20.042Z,99240.91
2023-01-18T10:08:50.253Z,99246.47
2023-01-18T10:11:22.984Z,99248.50
2023-01-18T10:13:57.559Z,99249.81
2023-01-18T10:16:25.667Z,99260.59
2023-01-18T10:18:56.010Z,99260.00
2023-01-18T10:21:34.739Z,99266.41
2023-01-18T10:24:10.728Z,99273.63
2023-01-18T10:26:38.807Z,99272.03
2023-01-18T10:29:16.246Z,99273.22
2023-01-18T10:31:44.702Z,99283.19
2023-01-18T10:34:17.089Z,99290.72
2023-01-18T10:36:46.457Z,99296.44
2023-01-18T10:39:22.697Z,99283.09
2023-01-18T10:41:50.446Z,99287.06
2023-01-18T10:44:17.569Z,99291.13
2023-01-18T10:46:45.979Z,99284.66
2023-01-18T10:49:33.135Z,99298.88
2023-01-18T10:52:16.726Z,99296.63
2023-01-18T10:54:52.107Z,99296.03
2023-01-18T10:57:22.221Z,99298.50
2023-01-18T10:59:51.348Z,99309.72
2023-01-18T11:02:27.875Z,99304.06
2023-01-18T11:04:57.451Z,99316.13
2023-01-18T11:07:25.611Z,99308.31
2023-01-18T11:09:55.824Z,99307.63
2023-01-18T11:12:40.722Z,99306.34
2023-01-18T11:15:14.892Z,99311.63
2023-01-18T11:17:56.412Z,99311.81
2023-01-18T11:20:30.840Z,99314.63
2023-01-18T11:22:59.384Z,99315.69
2023-01-18T11:25:27.940Z,99312.75
2023-01-18T11:28:04.191Z,99326.97
2023-01-18T11:30:31.113Z,99322.75
2023-01-18T11:33:00.198Z,99325.06
2023-01-18T11:35:31.367Z,99319.25
2023-01-18T11:38:00.200Z,99329.84
2023-01-18T11:40:29.473Z,99328.06
2023-01-18T11:42:59.921Z,99323.19
2023-01-18T11:45:30.061Z,99333.00
2023-01-18T11:48:00.008Z,99324.22
2023-01-18T11:50:30.263Z,99335.97
2023-01-18T11:52:58.334Z,99334.69
2023-01-18T11:55:25.395Z,99339.41
2023-01-18T11:57:54.280Z,99338.16
2023-01-18T12:00:28.218Z,99341.41
2023-01-18T12:03:11.993Z,99332.16
2023-01-18T12:05:44.291Z,99335.09
2023-01-18T12:08:15.455Z,99340.97
2023-01-18T12:10:42.893Z,99334.47
2023-01-18T12:13:19.078Z,99336.59
2023-01-18T12:15:54.978Z,99346.41
2023-01-18T12:18:22.502Z,99333.03
2023-01-18T12:20:59.328Z,99328.34
2023-01-18T12:23:36.283Z,99334.88
2023-01-18T12:26:13.255Z,99330.28
2023-01-18T12:28:48.688Z,99341.06
2023-01-18T12:31:24.894Z,99335.56
2023-01-18T12:34:01.804Z,99345.38
2023-01-18T12:36:39.147Z,99344.72
2023-01-18T12:39:13.929Z,99347.84
2023-01-18T12:41:42.183Z,99359.31
2023-01-18T12:44:19.410Z,99356.84
2023-01-18T12:46:53.635Z,99355.56
2023-01-18T12:49:21.833Z,99366.16
2023-01-18T12:51:53.344Z,99353.63
2023-01-18T12:54:25.093Z,99366.50
2023-01-18T12:56:55.013Z,99367.78
2023-01-18T12:59:29.486Z,99359.97
2023-01-18T13:02:16.570Z,99366.19
2023-01-18T13:04:45.548Z,99366.81
2023-01-18T13:07:14.473Z,99367.63
2023-01-18T13:09:45.098Z,99376.78
2023-01-18T13:12:13.724Z,99373.50
2023-01-18T13:14:50.288Z,99379.88
2023-01-18T13:17:25.816Z,99369.13
2023-01-18T13:20:12.138Z,99370.28
2023-01-18T13:22:48.537Z,99376.66
2023-01-18T13:25:26.784Z,99387.41
2023-01-18T13:28:03.471Z,99385.13
2023-01-18T13:30:32.242Z,99390.19
2023-01-18T13:32:59.705Z,99390.66
2023-01-18T13:35:33.056Z,99398.84
2023-01-18T13:38:01.873Z,99400.81
2023-01-18T13:40:32.603Z,99405.38
2023-01-18T13:43:00.159Z,99405.53
2023-01-18T13:45:29.157Z,99404.53
2023-01-18T13:47:56.467Z,99415.81
2023-01-18T13:50:31.729Z,99412.38
2023-01-18T13:53:08.586Z,99416.16
2023-01-18T13:55:36.182Z,99425.78
2023-01-18T13:58:03.651Z,99431.19
2023-01-18T14:00:31.901Z,99435.44
2023-01-18T14:03:08.294Z,99430.22
2023-01-18T14:05:38.354Z,99431.34
2023-01-18T14:08:06.776Z,99443.09
2023-01-18T14:10:37.278Z,99446.72
2023-01-18T14:13:06.846Z,99447.69
2023-01-18T14:15:43.331Z,99455.69
2023-01-18T14:18:20.216Z,99450.94
2023-01-18T14:20:57.169Z,99456.34
2023-01-18T14:23:25.213Z,99458.78
2023-01-18T14:25:57.971Z,99460.59
2023-01-18T14:28:30.635Z,99458.47
2023-01-18T14:30:59.014Z,99454.22
2023-01-18T14:33:29.218Z,99458.81
2023-01-18T14:35:58.537Z,99472.50
2023-01-18T14:38:26.089Z,99476.91
2023-01-18T14:40:55.632Z,99483.16
2023-01-18T14:43:23.814Z,99480.69
2023-01-18T14:45:54.810Z,99480.53
2023-01-18T14:48:23.564Z,99479.72
2023-01-18T14:50:52.841Z,99478.56
2023-01-18T14:53:22.560Z,99479.72
2023-01-18T14:55:59.620Z,99488.38
2023-01-18T14:58:27.884Z,99486.88
2023-01-18T15:00:55.227Z,99499.47
2023-01-18T15:03:26.656Z,99486.72
2023-01-18T15:05:59.563Z,99497.34
2023-01-18T15:08:27.832Z,99502.56
2023-01-18T15:10:55.581Z,99497.16
2023-01-18T15:13:26.676Z,99504.84
2023-01-18T15:15:54.970Z,99505.81
2023-01-18T15:18:23.941Z,99510.41
2023-01-18T15:20:51.973Z,99519.06
2023-01-18T15:23:19.089Z,99523.31
2023-01-18T15:25:49.414Z,99527.88
2023-01-18T15:28:23.639Z,99532.16
2023-01-18T15:30:52.960Z,99535.41
2023-01-18T15:33:21.604Z,99539.00
2023-01-18T15:35:49.989Z,99543.72
2023-01-18T15:38:17.005Z,99540.44
2023-01-18T15:40:53.369Z,99538.97
2023-01-18T15:43:27.226Z,99549.91
2023-01-18T15:45:55.851Z,99559.53
2023-01-18T15:48:24.661Z,99561.66
2023-01-18T15:50:56.525Z,99566.91
2023-01-18T15:53:28.392Z,99566.06
2023-01-18T15:56:00.764Z,99569.81
2023-01-18T15:58:37.547Z,99571.09
2023-01-18T16:01:07.776Z,99567.03
2023-01-18T16:03:36.808Z,99573.22
2023-01-18T16:06:13.014Z,99579.72
2023-01-18T16:08:49.095Z,99581.00
2023-01-18T16:11:26.939Z,99583.94
2023-01-18T16:13:58.301Z,99580.84
2023-01-18T16:16:25.900Z,99583.75
2023-01-18T16:18:53.247Z,99584.06
2023-01-18T16:21:22.777Z,99586.00
2023-01-18T16:23:51.664Z,99592.38
2023-01-18T16:26:23.675Z,99597.06
2023-01-18T16:28:51.734Z,99594.94
2023-01-18T16:31:21.176Z,99599.66
2023-01-18T16:33:48.306Z,99599.28
2023-01-18T16:36:16.949Z,99600.41
2023-01-18T16:38:43.959Z,99605.81
2023-01-18T16:41:11.667Z,99610.34
2023-01-18T16:43:39.340Z,99615.91
2023-01-18T16:46:06.865Z,99626.47
2023-01-18T16:48:34.458Z,99623.19
2023-01-18T16:51:01.745Z,99632.31
2023-01-18T16:53:29.634Z,99636.06
2023-01-18T16:55:57.093Z,99644.31
2023-01-18T16:58:24.559Z,99638.41
2023-01-18T17:00:52.461Z,99639.56
2023-01-18T17:03:19.759Z,99644.09
2023-01-18T17:05:46.932Z,99649.31
2023-01-18T17:08:15.665Z,99660.84
2023-01-18T17:10:45.347Z,99664.75
2023-01-18T17:13:12.764Z,99667.53
2023-01-18T17:15:42.405Z,99669.75
2023-01-18T17:18:21.113Z,99674.44
2023-01-18T17:20:48.373Z,99676.22
2023-01-18T17:23:16.368Z,99686.66
2023-01-18T17:25:43.538Z,99680.78
2023-01-18T17:28:13.584Z,99692.03
2023-01-18T17:30:41.708Z,99694.78
2023-01-18T17:33:14.874Z,99691.06
2023-01-18T17:35:42.015Z,99696.44
2023-01-18T17:38:21.991Z,99693.00
2023-01-18T17:40:49.767Z,99699.88
2023-01-18T17:43:32.948Z,99697.09
2023-01-18T17:46:05.236Z,99703.81
2023-01-18T17:48:32.720Z,99717.00
2023-01-18T17:50:59.972Z,99710.97
2023-01-18T17:53:27.426Z,99717.13
2023-01-18T17:55:54.719Z,99726.09
2023-01-18T17:58:21.886Z,99729.00
2023-01-18T18:00:49.404Z,99732.41
2023-01-18T18:03:16.980Z,99743.00
2023-01-18T18:05:44.344Z,99745.63
2023-01-18T18:08:11.432Z,99749.06
2023-01-18T18:10:38.710Z,99760.31
2023-01-18T18:13:06.040Z,99758.81
2023-01-18T18:15:33.268Z,99758.94
2023-01-18T18:18:00.373Z,99764.97
2023-01-18T18:20:27.495Z,99761.03
2023-01-18T18:22:54.308Z,99766.69
2023-01-18T18:25:21.369Z,99783.44
2023-01-18T18:27:48.531Z,99787.69
2023-01-18T18:30:18.184Z,99797.31
2023-01-18T18:32:45.487Z,99790.16
2023-01-18T18:35:24.554Z,99791.00
2023-01-18T18:37:53.769Z,99789.22
2023-01-18T18:40:20.683Z,99797.16
2023-01-18T18:43:00.839Z,99803.34
2023-01-18T18:45:30.525Z,99810.22
2023-01-18T18:47:57.643Z,99822.16
2023-01-18T18:50:24.700Z,99819.69
2023-01-18T18:52:51.690Z,99826.00
2023-01-18T18:55:19.344Z,99827.25
2023-01-18T18:57:46.330Z,99832.75
2023-01-18T19:00:13.848Z,99823.28
2023-01-18T19:02:40.968Z,99838.13
2023-01-18T19:05:08.198Z,99840.84
2023-01-18T19:07:35.525Z,99844.28
2023-01-18T19:10:02.658Z,99839.91
2023-01-18T19:12:29.889Z,99841.03
2023-01-18T19:14:56.709Z,99846.25
2023-01-18T19:17:30.121Z,99864.50
2023-01-18T19:19:57.738Z,99862.97
2023-01-18T19:22:24.763Z,99868.31
2023-01-18T19:24:51.946Z,99871.91
2023-01-18T19:27:18.722Z,99871.91
2023-01-18T19:29:45.724Z,99871.09
2023-01-18T19:32:12.539Z,99876.75
2023-01-18T19:34:39.504Z,99874.41
2023-01-18T19:37:06.668Z,99881.56
2023-01-18T19:39:35.081Z,99877.44
2023-01-18T19:42:02.569Z,99888.00
2023-01-18T19:44:29.923Z,99891.84
2023-01-18T19:46:57.410Z,99904.88
2023-01-18T19:49:26.587Z,99915.31
2023-01-18T19:51:54.785Z,99919.69
2023-01-18T19:54:21.882Z,99911.88
2023-01-18T19:56:48.922Z,99921.63
2023-01-18T19:59:16.142Z,99925.06
2023-01-18T20:01:43.372Z,99928.88
2023-01-18T20:04:10.541Z,99924.66
2023-01-18T20:06:38.881Z,99939.47
2023-01-18T20:09:19.134Z,99929.88
2023-01-18T20:11:48.134Z,99936.72
2023-01-18T20:14:15.721Z,99937.53
2023-01-18T20:16:44.787Z,99945.50
2023-01-18T20:19:13.479Z,99939.47
2023-01-18T20:21:40.340Z,99942.91
2023-01-18T20:24:07.688Z,99943.88
2023-01-18T20:26:37.826Z,99939.59
2023-01-18T20:29:13.187Z,99940.56
2023-01-18T20:31:41.075Z,99953.59
2023-01-18T20:34:09.998Z,99950.16
2023-01-18T20:36:37.818Z,99950.97
2023-01-18T20:39:05.315Z,99957.16
2023-01-18T20:41:32.468Z,99959.75
2023-01-18T20:43:59.233Z,99961.53
2023-01-18T20:46:26.027Z,99956.50
2023-01-18T20:48:55.657Z,99961.81
2023-01-18T20:51:22.379Z,99958.41
2023-01-18T20:53:49.284Z,99964.72
2023-01-18T20:56:28.902Z,99966.50
2023-01-18T20:58:56.829Z,99964.56
2023-01-18T21:01:23.851Z,99956.91
2023-01-18T21:03:54.532Z,99968.28
2023-01-18T21:06:21.325Z,99970.34
2023-01-18T21:08:48.093Z,99970.34
2023-01-18T21:11:16.207Z,99961.84
2023-01-18T21:13:43.532Z,99967.88
2023-01-18T21:16:10.344Z,99972.25
2023-01-18T21:18:37.875Z,99972.38
2023-01-18T21:21:07.608Z,99975.94
2023-01-18T21:23:39.608Z,99980.50
2023-01-18T21:26:08.052Z,99983.22
2023-01-18T21:28:37.695Z,99980.75
2023-01-18T21:31:04.709Z,99992.81
2023-01-18T21:33:32.389Z,99988.56
2023-01-18T21:36:06.264Z,99995.41
2023-01-18T21:38:38.734Z,99998.97
2023-01-18T21:41:18.785Z,100006.00
2023-01-18T21:43:54.824Z,100006.13
2023-01-18T21:46:21.995Z,100007.06
2023-01-18T21:48:48.923Z,100008.03
2023-01-18T21:51:24.820Z,100005.44
2023-01-18T21:54:00.862Z,100008.84
2023-01-18T21:56:27.855Z,100023.66
2023-01-18T21:58:55.085Z,100020.22
2023-01-18T22:01:23.413Z,100016.00
2023-01-18T22:04:01.130Z,100019.41
2023-01-18T22:06:28.105Z,100023.00
2023-01-18T22:08:55.064Z,100020.38
2023-01-18T22:11:21.779Z,100026.53
2023-01-18T22:13:48.820Z,100029.16
2023-01-18T22:16:15.551Z,100028.31
2023-01-18T22:18:42.254Z,100029.16
2023-01-18T22:21:09.001Z,100030.38
2023-01-18T22:23:36.004Z,100036.53
2023-01-18T22:26:02.813Z,100041.63
2023-01-18T22:28:29.504Z,100048.47
2023-01-18T22:30:56.747Z,100047.50
2023-01-18T22:33:23.449Z,100052.72
2023-01-18T22:35:50.278Z,100047.50
2023-01-18T22:38:17.248Z,100058.06
2023-01-18T22:40:43.923Z,100063.25
2023-01-18T22:43:10.605Z,100067.94
2023-01-18T22:45:37.313Z,100069.69
2023-01-18T22:48:04.134Z,100068.06
2023-01-18T22:50:30.844Z,100073.25
2023-01-18T22:52:57.569Z,100075.88
2023-01-18T22:55:24.318Z,100072.47
2023-01-18T22:57:51.007Z,100090.81
2023-01-18T23:00:18.250Z,100081.22
2023-01-18T23:02:44.886Z,100091.78
2023-01-18T23:05:11.542Z,100092.03
2023-01-18T23:07:38.773Z,100100.81
2023-01-18T23:10:05.630Z,100100.94
2023-01-18T23:12:32.474Z,100089.56
2023-01-18T23:15:09.042Z,100093.00
2023-01-18T23:17:38.759Z,100097.50
2023-01-18T23:20:06.639Z,100099.97
2023-01-18T23:22:33.572Z,100116.84
2023-01-18T23:25:00.292Z,100115.19
2023-01-18T23:27:27.049Z,100118.63
2023-01-18T23:29:57.391Z,100114.22
2023-01-18T23:32:28.040Z,100117.78
2023-01-18T23:34:55.670Z,100130.69
2023-01-18T23:37:22.338Z,100117.66
2023-01-18T23:39:59.047Z,100126.31
2023-01-18T23:42:35.227Z,100135.75
2023-01-18T23:45:11.856Z,100133.13
2023-01-18T23:47:48.280Z,100138.34
2023-01-18T23:50:24.806Z,100133.28
2023-01-18T23:53:01.138Z,100135.06
2023-01-18T23:55:27.814Z,100132.84
2023-01-18T23:57:54.477Z,100130.25
